sensor_id;sensor_type;location;lat;lon;timestamp;pressure;altitude;pressure_sealevel;temperature;humidity
44839;BME280;30576;42.098;24.876;2022-08-21T00:00:42;99031.38;;;23.10;80.51
44839;BME280;30576;42.098;24.876;2022-08-21T00:03:09;99016.34;;;23.30;79.18
44839;BME280;30576;42.098;24.876;2022-08-21T00:05:38;99024.19;;;23.33;78.86
44839;BME280;30576;42.098;24.876;2022-08-21T00:08:04;99009.75;;;22.52;78.39
44839;BME280;30576;42.098;24.876;2022-08-21T00:10:30;99041.09;;;22.40;80.69
44839;BME280;30576;42.098;24.876;2022-08-21T00:12:55;99029.91;;;21.96;85.19
44839;BME280;30576;42.098;24.876;2022-08-21T00:15:25;99052.94;;;22.25;84.40
44839;BME280;30576;42.098;24.876;2022-08-21T00:17:54;99058.00;;;22.29;82.48
44839;BME280;30576;42.098;24.876;2022-08-21T00:20:21;99065.00;;;22.56;82.53
44839;BME280;30576;42.098;24.876;2022-08-21T00:22:48;99018.22;;;22.59;80.85
44839;BME280;30576;42.098;24.876;2022-08-21T00:25:15;99036.63;;;22.87;80.05
44839;BME280;30576;42.098;24.876;2022-08-21T00:27:41;98995.38;;;22.64;80.64
44839;BME280;30576;42.098;24.876;2022-08-21T00:30:08;99033.09;;;22.87;80.44
44839;BME280;30576;42.098;24.876;2022-08-21T00:32:37;99031.09;;;23.02;79.66
44839;BME280;30576;42.098;24.876;2022-08-21T00:35:05;99025.03;;;23.11;78.63
44839;BME280;30576;42.098;24.876;2022-08-21T00:37:31;99060.59;;;23.15;79.13
44839;BME280;30576;42.098;24.876;2022-08-21T00:39:57;99033.69;;;23.15;78.77
44839;BME280;30576;42.098;24.876;2022-08-21T00:42:22;99062.44;;;23.26;77.27
44839;BME280;30576;42.098;24.876;2022-08-21T00:44:49;99070.41;;;23.27;77.19
44839;BME280;30576;42.098;24.876;2022-08-21T00:47:16;99041.41;;;23.31;77.38
44839;BME280;30576;42.098;24.876;2022-08-21T00:49:42;99006.56;;;23.18;76.43
44839;BME280;30576;42.098;24.876;2022-08-21T00:52:12;99027.47;;;23.26;76.15
44839;BME280;30576;42.098;24.876;2022-08-21T00:54:41;99034.66;;;23.14;76.85
44839;BME280;30576;42.098;24.876;2022-08-21T00:57:13;99010.69;;;23.11;76.36
44839;BME280;30576;42.098;24.876;2022-08-21T00:59:40;99032.63;;;23.17;76.26
44839;BME280;30576;42.098;24.876;2022-08-21T01:02:08;99036.16;;;23.29;76.66
44839;BME280;30576;42.098;24.876;2022-08-21T01:04:35;98995.34;;;22.88;77.10
44839;BME280;30576;42.098;24.876;2022-08-21T01:07:01;99019.53;;;23.13;78.20
44839;BME280;30576;42.098;24.876;2022-08-21T01:09:27;98984.78;;;23.10;77.31
44839;BME280;30576;42.098;24.876;2022-08-21T01:11:53;98995.44;;;23.22;76.89
44839;BME280;30576;42.098;24.876;2022-08-21T01:14:19;98989.94;;;22.77;78.48
44839;BME280;30576;42.098;24.876;2022-08-21T01:16:48;98984.72;;;22.87;78.06
44839;BME280;30576;42.098;24.876;2022-08-21T01:19:16;98958.94;;;22.96;77.61
44839;BME280;30576;42.098;24.876;2022-08-21T01:21:42;98986.28;;;23.36;76.91
44839;BME280;30576;42.098;24.876;2022-08-21T01:24:09;98931.84;;;23.21;76.14
44839;BME280;30576;42.098;24.876;2022-08-21T01:26:35;98952.03;;;23.16;77.08
44839;BME280;30576;42.098;24.876;2022-08-21T01:29:26;98978.44;;;23.22;77.57
44839;BME280;30576;42.098;24.876;2022-08-21T01:31:55;98943.97;;;23.16;77.35
44839;BME280;30576;42.098;24.876;2022-08-21T01:34:21;98921.81;;;23.12;77.43
44839;BME280;30576;42.098;24.876;2022-08-21T01:36:46;98913.34;;;23.05;77.90
44839;BME280;30576;42.098;24.876;2022-08-21T01:39:12;98924.91;;;23.19;77.58
44839;BME280;30576;42.098;24.876;2022-08-21T01:41:38;98967.31;;;23.38;76.84
44839;BME280;30576;42.098;24.876;2022-08-21T01:44:04;98950.81;;;23.31;76.76
44839;BME280;30576;42.098;24.876;2022-08-21T01:46:30;98974.53;;;23.37;77.00
44839;BME280;30576;42.098;24.876;2022-08-21T01:51:20;98959.19;;;23.04;77.82
44839;BME280;30576;42.098;24.876;2022-08-21T01:53:46;98992.50;;;23.26;77.95
44839;BME280;30576;42.098;24.876;2022-08-21T01:56:15;99020.63;;;22.86;81.27
44839;BME280;30576;42.098;24.876;2022-08-21T01:58:42;99020.38;;;22.78;82.20
44839;BME280;30576;42.098;24.876;2022-08-21T02:01:08;99046.41;;;22.77;82.95
44839;BME280;30576;42.098;24.876;2022-08-21T02:03:34;99051.44;;;22.58;83.84
44839;BME280;30576;42.098;24.876;2022-08-21T02:06:00;99050.88;;;22.65;83.49
44839;BME280;30576;42.098;24.876;2022-08-21T02:08:27;99060.81;;;22.76;83.45
44839;BME280;30576;42.098;24.876;2022-08-21T02:10:53;99028.91;;;22.47;83.91
44839;BME280;30576;42.098;24.876;2022-08-21T02:13:18;99034.38;;;22.70;83.39
44839;BME280;30576;42.098;24.876;2022-08-21T02:15:44;99042.09;;;22.75;82.44
44839;BME280;30576;42.098;24.876;2022-08-21T02:18:10;99034.81;;;22.52;83.59
44839;BME280;30576;42.098;24.876;2022-08-21T02:20:40;99076.75;;;22.91;82.94
44839;BME280;30576;42.098;24.876;2022-08-21T02:23:07;99041.53;;;22.82;82.61
44839;BME280;30576;42.098;24.876;2022-08-21T02:25:34;99044.72;;;22.87;81.59
44839;BME280;30576;42.098;24.876;2022-08-21T02:28:03;99037.78;;;22.96;81.23
44839;BME280;30576;42.098;24.876;2022-08-21T02:30:33;99025.53;;;22.92;81.07
44839;BME280;30576;42.098;24.876;2022-08-21T02:33:00;99066.59;;;23.18;81.26
44839;BME280;30576;42.098;24.876;2022-08-21T02:35:26;99039.72;;;23.30;80.07
44839;BME280;30576;42.098;24.876;2022-08-21T02:38:04;99074.09;;;23.37;80.17
44839;BME280;30576;42.098;24.876;2022-08-21T02:40:33;99090.84;;;23.30;80.08
44839;BME280;30576;42.098;24.876;2022-08-21T02:42:59;99068.31;;;22.95;81.18
44839;BME280;30576;42.098;24.876;2022-08-21T02:45:26;99097.66;;;23.11;81.92
44839;BME280;30576;42.098;24.876;2022-08-21T02:47:58;99088.41;;;23.02;81.98
44839;BME280;30576;42.098;24.876;2022-08-21T02:50:36;99100.09;;;22.90;83.27
44839;BME280;30576;42.098;24.876;2022-08-21T02:53:02;99073.56;;;22.61;83.89
44839;BME280;30576;42.098;24.876;2022-08-21T02:55:30;99080.44;;;22.28;85.80
44839;BME280;30576;42.098;24.876;2022-08-21T02:57:56;99091.69;;;22.46;85.28
44839;BME280;30576;42.098;24.876;2022-08-21T03:00:24;99083.44;;;22.37;84.98
44839;BME280;30576;42.098;24.876;2022-08-21T03:02:51;99112.97;;;22.74;84.08
44839;BME280;30576;42.098;24.876;2022-08-21T03:05:17;99088.19;;;22.81;82.73
44839;BME280;30576;42.098;24.876;2022-08-21T03:07:44;99075.31;;;22.74;81.81
44839;BME280;30576;42.098;24.876;2022-08-21T03:10:09;99074.97;;;22.78;81.97
44839;BME280;30576;42.098;24.876;2022-08-21T03:12:35;99088.66;;;22.75;82.77
44839;BME280;30576;42.098;24.876;2022-08-21T03:15:07;99084.25;;;22.50;83.84
44839;BME280;30576;42.098;24.876;2022-08-21T03:17:33;99060.91;;;22.26;84.51
44839;BME280;30576;42.098;24.876;2022-08-21T03:19:59;99062.47;;;22.42;84.99
44839;BME280;30576;42.098;24.876;2022-08-21T03:22:26;99048.59;;;22.11;86.58
44839;BME280;30576;42.098;24.876;2022-08-21T03:24:52;99068.47;;;22.08;87.83
44839;BME280;30576;42.098;24.876;2022-08-21T03:27:18;99055.53;;;22.26;85.89
44839;BME280;30576;42.098;24.876;2022-08-21T03:29:44;99081.47;;;22.51;84.67
44839;BME280;30576;42.098;24.876;2022-08-21T03:32:09;99042.19;;;22.38;84.12
44839;BME280;30576;42.098;24.876;2022-08-21T03:34:36;99074.72;;;22.70;82.75
44839;BME280;30576;42.098;24.876;2022-08-21T03:37:03;99104.28;;;22.94;82.08
44839;BME280;30576;42.098;24.876;2022-08-21T03:39:29;99118.84;;;23.03;82.11
44839;BME280;30576;42.098;24.876;2022-08-21T03:41:54;99086.53;;;22.92;81.68
44839;BME280;30576;42.098;24.876;2022-08-21T03:44:20;99081.50;;;22.87;82.16
44839;BME280;30576;42.098;24.876;2022-08-21T03:46:45;99063.94;;;22.94;81.72
44839;BME280;30576;42.098;24.876;2022-08-21T03:49:11;99099.47;;;23.11;81.46
44839;BME280;30576;42.098;24.876;2022-08-21T03:51:37;99084.06;;;23.13;81.39
44839;BME280;30576;42.098;24.876;2022-08-21T03:54:03;99112.31;;;23.18;81.38
44839;BME280;30576;42.098;24.876;2022-08-21T03:56:28;99080.19;;;22.93;82.21
44839;BME280;30576;42.098;24.876;2022-08-21T03:58:54;99108.88;;;22.92;83.42
44839;BME280;30576;42.098;24.876;2022-08-21T04:01:20;99098.53;;;22.50;84.90
44839;BME280;30576;42.098;24.876;2022-08-21T04:03:46;99076.09;;;22.76;83.40
44839;BME280;30576;42.098;24.876;2022-08-21T04:06:12;99079.34;;;22.68;84.07
44839;BME280;30576;42.098;24.876;2022-08-21T04:08:37;99114.63;;;22.87;84.45
44839;BME280;30576;42.098;24.876;2022-08-21T04:11:03;99101.25;;;22.75;84.88
44839;BME280;30576;42.098;24.876;2022-08-21T04:13:30;99112.63;;;22.78;84.86
44839;BME280;30576;42.098;24.876;2022-08-21T04:15:57;99092.03;;;22.42;86.21
44839;BME280;30576;42.098;24.876;2022-08-21T04:18:23;99125.38;;;22.63;86.06
44839;BME280;30576;42.098;24.876;2022-08-21T04:20:51;99081.50;;;22.26;87.13
44839;BME280;30576;42.098;24.876;2022-08-21T04:23:21;99099.13;;;22.30;88.73
44839;BME280;30576;42.098;24.876;2022-08-21T04:25:47;99078.94;;;22.24;88.02
44839;BME280;30576;42.098;24.876;2022-08-21T04:28:12;99066.94;;;22.17;88.00
44839;BME280;30576;42.098;24.876;2022-08-21T04:30:38;99093.13;;;22.39;86.95
44839;BME280;30576;42.098;24.876;2022-08-21T04:33:04;99077.38;;;22.46;85.59
44839;BME280;30576;42.098;24.876;2022-08-21T04:35:30;99049.22;;;22.14;86.59
44839;BME280;30576;42.098;24.876;2022-08-21T04:37:56;99095.41;;;22.32;86.80
44839;BME280;30576;42.098;24.876;2022-08-21T04:40:23;99083.91;;;22.17;87.23
44839;BME280;30576;42.098;24.876;2022-08-21T04:42:52;99082.84;;;22.20;87.99
44839;BME280;30576;42.098;24.876;2022-08-21T04:45:28;99100.13;;;22.16;86.63
44839;BME280;30576;42.098;24.876;2022-08-21T04:47:56;99060.38;;;21.71;88.53
44839;BME280;30576;42.098;24.876;2022-08-21T04:50:28;99080.13;;;21.83;89.27
44839;BME280;30576;42.098;24.876;2022-08-21T04:52:54;99074.38;;;22.00;88.67
44839;BME280;30576;42.098;24.876;2022-08-21T04:55:21;99067.50;;;22.09;87.63
44839;BME280;30576;42.098;24.876;2022-08-21T04:57:48;99059.22;;;22.12;86.87
44839;BME280;30576;42.098;24.876;2022-08-21T05:00:19;99088.66;;;22.51;85.32
44839;BME280;30576;42.098;24.876;2022-08-21T05:02:46;99073.31;;;22.64;83.92
44839;BME280;30576;42.098;24.876;2022-08-21T05:05:13;99079.25;;;22.69;82.80
44839;BME280;30576;42.098;24.876;2022-08-21T05:07:39;99042.13;;;22.13;84.03
44839;BME280;30576;42.098;24.876;2022-08-21T05:10:05;99046.53;;;22.14;84.20
44839;BME280;30576;42.098;24.876;2022-08-21T05:12:33;99083.53;;;22.48;84.45
44839;BME280;30576;42.098;24.876;2022-08-21T05:14:59;99081.84;;;22.58;84.04
44839;BME280;30576;42.098;24.876;2022-08-21T05:17:25;99074.13;;;22.53;84.33
44839;BME280;30576;42.098;24.876;2022-08-21T05:19:51;99050.84;;;22.41;84.52
44839;BME280;30576;42.098;24.876;2022-08-21T05:22:23;99055.28;;;22.42;85.24
44839;BME280;30576;42.098;24.876;2022-08-21T05:24:50;99066.88;;;22.43;85.37
44839;BME280;30576;42.098;24.876;2022-08-21T05:27:15;99051.94;;;22.63;83.97
44839;BME280;30576;42.098;24.876;2022-08-21T05:29:42;99039.41;;;22.75;83.57
44839;BME280;30576;42.098;24.876;2022-08-21T05:32:12;99038.00;;;22.82;83.22
44839;BME280;30576;42.098;24.876;2022-08-21T05:34:37;99053.41;;;22.91;83.16
44839;BME280;30576;42.098;24.876;2022-08-21T05:37:03;99058.59;;;23.05;82.60
44839;BME280;30576;42.098;24.876;2022-08-21T05:39:29;99008.09;;;22.62;83.35
44839;BME280;30576;42.098;24.876;2022-08-21T05:41:55;99039.78;;;22.81;82.87
44839;BME280;30576;42.098;24.876;2022-08-21T05:44:20;99064.69;;;23.07;83.19
44839;BME280;30576;42.098;24.876;2022-08-21T05:46:46;99073.88;;;23.05;82.68
44839;BME280;30576;42.098;24.876;2022-08-21T05:49:11;99061.56;;;23.14;82.24
44839;BME280;30576;42.098;24.876;2022-08-21T05:51:39;99051.25;;;23.07;82.03
44839;BME280;30576;42.098;24.876;2022-08-21T05:54:05;99026.78;;;22.99;82.15
44839;BME280;30576;42.098;24.876;2022-08-21T05:56:31;99082.38;;;23.23;81.99
44839;BME280;30576;42.098;24.876;2022-08-21T05:58:57;99056.56;;;22.85;84.13
44839;BME280;30576;42.098;24.876;2022-08-21T06:01:23;99072.31;;;22.54;86.01
44839;BME280;30576;42.098;24.876;2022-08-21T06:03:48;99093.19;;;22.75;85.05
44839;BME280;30576;42.098;24.876;2022-08-21T06:06:14;99065.00;;;22.56;85.42
44839;BME280;30576;42.098;24.876;2022-08-21T06:08:41;99096.97;;;22.48;88.72
44839;BME280;30576;42.098;24.876;2022-08-21T06:11:07;99097.06;;;22.46;88.00
44839;BME280;30576;42.098;24.876;2022-08-21T06:13:34;99084.78;;;22.31;87.48
44839;BME280;30576;42.098;24.876;2022-08-21T06:16:06;99103.69;;;22.53;87.67
44839;BME280;30576;42.098;24.876;2022-08-21T06:18:34;99082.19;;;22.78;85.51
44839;BME280;30576;42.098;24.876;2022-08-21T06:21:00;99092.41;;;22.97;85.48
44839;BME280;30576;42.098;24.876;2022-08-21T06:23:25;99048.91;;;22.67;85.25
44839;BME280;30576;42.098;24.876;2022-08-21T06:25:51;99097.25;;;22.80;86.63
44839;BME280;30576;42.098;24.876;2022-08-21T06:28:16;99066.53;;;22.71;86.85
44839;BME280;30576;42.098;24.876;2022-08-21T06:30:42;99077.00;;;22.39;88.82
44839;BME280;30576;42.098;24.876;2022-08-21T06:33:07;99065.16;;;22.29;89.55
44839;BME280;30576;42.098;24.876;2022-08-21T06:35:33;99070.00;;;22.37;89.80
44839;BME280;30576;42.098;24.876;2022-08-21T06:37:59;99081.63;;;22.85;86.33
44839;BME280;30576;42.098;24.876;2022-08-21T06:40:26;99091.22;;;22.77;87.47
44839;BME280;30576;42.098;24.876;2022-08-21T06:42:52;99087.19;;;22.71;88.28
44839;BME280;30576;42.098;24.876;2022-08-21T06:45:17;99066.03;;;23.02;87.07
44839;BME280;30576;42.098;24.876;2022-08-21T06:47:43;99085.09;;;23.34;85.63
44839;BME280;30576;42.098;24.876;2022-08-21T06:50:09;99052.31;;;23.29;85.30
44839;BME280;30576;42.098;24.876;2022-08-21T06:52:36;99077.69;;;23.60;83.55
44839;BME280;30576;42.098;24.876;2022-08-21T06:55:05;99053.44;;;23.38;84.28
44839;BME280;30576;42.098;24.876;2022-08-21T06:57:31;99056.16;;;23.72;83.78
44839;BME280;30576;42.098;24.876;2022-08-21T06:59:56;99065.84;;;23.86;82.13
44839;BME280;30576;42.098;24.876;2022-08-21T07:02:21;99048.59;;;23.88;81.11
44839;BME280;30576;42.098;24.876;2022-08-21T07:04:47;99044.28;;;24.08;80.29
44839;BME280;30576;42.098;24.876;2022-08-21T07:07:12;99017.84;;;24.02;77.71
44839;BME280;30576;42.098;24.876;2022-08-21T07:09:38;99056.03;;;24.07;77.59
44839;BME280;30576;42.098;24.876;2022-08-21T07:12:05;99069.47;;;24.30;77.15
44839;BME280;30576;42.098;24.876;2022-08-21T07:14:31;99063.72;;;24.23;77.28
44839;BME280;30576;42.098;24.876;2022-08-21T07:16:57;99049.25;;;24.24;77.35
44839;BME280;30576;42.098;24.876;2022-08-21T07:19:22;99042.66;;;24.28;76.27
44839;BME280;30576;42.098;24.876;2022-08-21T07:21:47;99052.63;;;24.05;77.16
44839;BME280;30576;42.098;24.876;2022-08-21T07:24:13;99016.63;;;23.95;76.36
44839;BME280;30576;42.098;24.876;2022-08-21T07:26:39;99040.59;;;24.21;76.11
44839;BME280;30576;42.098;24.876;2022-08-21T07:29:05;99042.44;;;23.64;78.84
44839;BME280;30576;42.098;24.876;2022-08-21T07:31:31;99064.97;;;24.08;77.74
44839;BME280;30576;42.098;24.876;2022-08-21T07:33:56;99044.84;;;24.23;77.29
44839;BME280;30576;42.098;24.876;2022-08-21T07:36:22;99028.78;;;24.33;76.69
44839;BME280;30576;42.098;24.876;2022-08-21T07:38:48;99050.56;;;24.41;76.64
44839;BME280;30576;42.098;24.876;2022-08-21T07:41:17;99047.50;;;24.46;76.60
44839;BME280;30576;42.098;24.876;2022-08-21T07:43:43;99011.72;;;24.00;77.91
44839;BME280;30576;42.098;24.876;2022-08-21T07:46:09;99021.50;;;23.67;80.46
44839;BME280;30576;42.098;24.876;2022-08-21T07:48:35;99039.25;;;23.70;81.07
44839;BME280;30576;42.098;24.876;2022-08-21T07:51:04;99048.28;;;23.46;81.71
44839;BME280;30576;42.098;24.876;2022-08-21T07:53:31;99018.69;;;23.46;82.64
44839;BME280;30576;42.098;24.876;2022-08-21T07:55:57;99012.22;;;23.94;81.41
44839;BME280;30576;42.098;24.876;2022-08-21T07:58:23;98992.03;;;23.66;80.52
44839;BME280;30576;42.098;24.876;2022-08-21T08:00:48;99017.22;;;23.65;81.36
44839;BME280;30576;42.098;24.876;2022-08-21T08:03:14;99050.38;;;23.54;80.86
44839;BME280;30576;42.098;24.876;2022-08-21T08:05:40;99034.75;;;23.59;81.02
44839;BME280;30576;42.098;24.876;2022-08-21T08:08:05;99011.00;;;23.53;80.36
44839;BME280;30576;42.098;24.876;2022-08-21T08:10:31;99026.53;;;23.72;81.42
44839;BME280;30576;42.098;24.876;2022-08-21T08:12:56;99028.09;;;23.63;81.62
44839;BME280;30576;42.098;24.876;2022-08-21T08:15:24;99011.84;;;23.42;81.95
44839;BME280;30576;42.098;24.876;2022-08-21T08:17:50;99001.09;;;23.42;81.09
44839;BME280;30576;42.098;24.876;2022-08-21T08:20:17;99011.72;;;23.44;82.12
44839;BME280;30576;42.098;24.876;2022-08-21T08:22:43;99050.88;;;23.82;81.08
44839;BME280;30576;42.098;24.876;2022-08-21T08:25:10;99028.88;;;23.65;81.44
44839;BME280;30576;42.098;24.876;2022-08-21T08:27:37;99039.63;;;23.65;82.06
44839;BME280;30576;42.098;24.876;2022-08-21T08:30:03;99006.31;;;23.32;80.75
44839;BME280;30576;42.098;24.876;2022-08-21T08:32:29;99008.56;;;23.50;81.45
44839;BME280;30576;42.098;24.876;2022-08-21T08:34:55;99013.41;;;23.22;82.95
44839;BME280;30576;42.098;24.876;2022-08-21T08:37:21;99008.88;;;23.34;83.57
44839;BME280;30576;42.098;24.876;2022-08-21T08:39:46;98992.53;;;23.48;84.05
44839;BME280;30576;42.098;24.876;2022-08-21T08:42:22;98994.22;;;23.38;81.37
44839;BME280;30576;42.098;24.876;2022-08-21T08:44:57;99020.03;;;23.52;84.35
44839;BME280;30576;42.098;24.876;2022-08-21T08:47:25;98994.00;;;23.64;82.55
44839;BME280;30576;42.098;24.876;2022-08-21T08:52:47;99011.09;;;23.74;79.37
44839;BME280;30576;42.098;24.876;2022-08-21T08:55:21;99017.34;;;24.08;79.68
44839;BME280;30576;42.098;24.876;2022-08-21T08:57:49;99008.00;;;24.12;78.76
44839;BME280;30576;42.098;24.876;2022-08-21T09:00:19;98971.50;;;24.20;78.44
44839;BME280;30576;42.098;24.876;2022-08-21T09:02:46;99012.72;;;24.75;76.85
44839;BME280;30576;42.098;24.876;2022-08-21T09:05:23;98991.78;;;24.35;74.68
44839;BME280;30576;42.098;24.876;2022-08-21T09:11:03;99016.41;;;24.30;76.17
44839;BME280;30576;42.098;24.876;2022-08-21T09:21:54;99006.41;;;24.86;73.84
44839;BME280;30576;42.098;24.876;2022-08-21T09:24:32;98992.72;;;24.99;72.88
44839;BME280;30576;42.098;24.876;2022-08-21T09:27:04;98986.75;;;24.95;72.07
44839;BME280;30576;42.098;24.876;2022-08-21T09:29:34;98971.00;;;25.22;73.75
44839;BME280;30576;42.098;24.876;2022-08-21T09:32:00;98986.66;;;25.49;69.39
44839;BME280;30576;42.098;24.876;2022-08-21T09:34:30;98954.84;;;25.62;68.30
44839;BME280;30576;42.098;24.876;2022-08-21T09:36:56;98990.00;;;26.03;67.18
44839;BME280;30576;42.098;24.876;2022-08-21T09:42:01;98974.81;;;26.21;66.49
44839;BME280;30576;42.098;24.876;2022-08-21T09:44:30;98979.78;;;26.36;65.00
44839;BME280;30576;42.098;24.876;2022-08-21T09:46:57;98992.75;;;26.71;62.29
44839;BME280;30576;42.098;24.876;2022-08-21T09:49:34;98976.19;;;27.04;61.53
44839;BME280;30576;42.098;24.876;2022-08-21T09:52:01;98989.88;;;27.02;60.48
44839;BME280;30576;42.098;24.876;2022-08-21T09:54:33;98967.66;;;26.98;62.06
44839;BME280;30576;42.098;24.876;2022-08-21T09:59:54;98972.72;;;27.21;61.81
44839;BME280;30576;42.098;24.876;2022-08-21T10:04:51;98953.91;;;27.39;60.87
44839;BME280;30576;42.098;24.876;2022-08-21T10:07:20;98987.56;;;27.64;60.96
44839;BME280;30576;42.098;24.876;2022-08-21T10:09:46;98984.25;;;27.71;59.84
44839;BME280;30576;42.098;24.876;2022-08-21T10:12:25;98956.19;;;27.24;62.66
44839;BME280;30576;42.098;24.876;2022-08-21T10:15:18;98979.88;;;27.60;61.43
44839;BME280;30576;42.098;24.876;2022-08-21T10:18:31;98969.03;;;27.60;60.42
44839;BME280;30576;42.098;24.876;2022-08-21T10:34:45;98977.72;;;27.63;59.64
44839;BME280;30576;42.098;24.876;2022-08-21T10:40:25;98971.97;;;27.39;60.61
44839;BME280;30576;42.098;24.876;2022-08-21T10:43:03;98955.06;;;27.27;60.59
44839;BME280;30576;42.098;24.876;2022-08-21T10:45:39;98975.13;;;27.34;60.64
44839;BME280;30576;42.098;24.876;2022-08-21T10:48:19;98973.69;;;27.40;59.34
44839;BME280;30576;42.098;24.876;2022-08-21T10:55:44;98946.03;;;26.89;60.67
44839;BME280;30576;42.098;24.876;2022-08-21T11:00:52;98975.75;;;26.98;60.98
44839;BME280;30576;42.098;24.876;2022-08-21T11:06:05;98957.31;;;26.74;63.54
44839;BME280;30576;42.098;24.876;2022-08-21T11:08:43;98950.72;;;26.48;64.25
44839;BME280;30576;42.098;24.876;2022-08-21T11:11:18;98968.84;;;26.76;64.09
44839;BME280;30576;42.098;24.876;2022-08-21T11:16:40;98972.97;;;26.51;66.91
44839;BME280;30576;42.098;24.876;2022-08-21T11:19:21;98986.59;;;26.40;63.98
44839;BME280;30576;42.098;24.876;2022-08-21T11:24:55;98971.91;;;26.03;66.39
44839;BME280;30576;42.098;24.876;2022-08-21T11:27:36;98958.03;;;25.87;66.01
44839;BME280;30576;42.098;24.876;2022-08-21T11:30:05;98966.97;;;26.48;64.79
44839;BME280;30576;42.098;24.876;2022-08-21T11:33:03;98963.16;;;26.31;65.49
44839;BME280;30576;42.098;24.876;2022-08-21T11:38:35;98954.03;;;26.12;65.65
44839;BME280;30576;42.098;24.876;2022-08-21T11:41:24;98956.44;;;26.25;68.14
44839;BME280;30576;42.098;24.876;2022-08-21T11:54:44;98927.56;;;26.45;67.42
44839;BME280;30576;42.098;24.876;2022-08-21T12:00:05;98937.38;;;26.26;67.36
44839;BME280;30576;42.098;24.876;2022-08-21T12:02:36;98915.31;;;26.02;67.83
44839;BME280;30576;42.098;24.876;2022-08-21T12:05:06;98938.09;;;25.68;70.97
44839;BME280;30576;42.098;24.876;2022-08-21T12:07:40;98939.81;;;25.60;72.99
44839;BME280;30576;42.098;24.876;2022-08-21T12:10:14;98943.41;;;25.80;70.89
44839;BME280;30576;42.098;24.876;2022-08-21T12:12:42;98920.91;;;25.60;70.93
44839;BME280;30576;42.098;24.876;2022-08-21T12:18:04;98904.19;;;25.35;71.53
44839;BME280;30576;42.098;24.876;2022-08-21T12:25:47;98907.81;;;25.55;70.76
44839;BME280;30576;42.098;24.876;2022-08-21T12:28:24;98890.19;;;25.61;72.15
44839;BME280;30576;42.098;24.876;2022-08-21T12:30:50;98891.81;;;25.32;69.90
44839;BME280;30576;42.098;24.876;2022-08-21T12:33:43;98918.81;;;25.32;71.96
44839;BME280;30576;42.098;24.876;2022-08-21T12:36:14;98923.63;;;25.08;73.14
44839;BME280;30576;42.098;24.876;2022-08-21T12:39:11;98919.38;;;25.36;73.39
44839;BME280;30576;42.098;24.876;2022-08-21T12:44:56;98911.88;;;25.40;70.73
44839;BME280;30576;42.098;24.876;2022-08-21T12:49:56;98885.16;;;25.06;70.71
44839;BME280;30576;42.098;24.876;2022-08-21T12:52:30;98872.81;;;25.13;69.83
44839;BME280;30576;42.098;24.876;2022-08-21T12:54:57;98866.00;;;25.09;72.30
44839;BME280;30576;42.098;24.876;2022-08-21T12:57:26;98882.22;;;25.18;70.75
44839;BME280;30576;42.098;24.876;2022-08-21T13:00:01;98862.66;;;25.26;71.22
44839;BME280;30576;42.098;24.876;2022-08-21T13:02:31;98872.84;;;25.53;69.22
44839;BME280;30576;42.098;24.876;2022-08-21T13:05:03;98858.09;;;25.27;69.54
44839;BME280;30576;42.098;24.876;2022-08-21T13:07:31;98871.06;;;25.33;70.79
44839;BME280;30576;42.098;24.876;2022-08-21T13:10:05;98869.28;;;25.53;69.16
44839;BME280;30576;42.098;24.876;2022-08-21T13:12:32;98867.88;;;25.49;69.57
44839;BME280;30576;42.098;24.876;2022-08-21T13:15:02;98870.78;;;25.05;70.71
44839;BME280;30576;42.098;24.876;2022-08-21T13:17:32;98894.69;;;25.41;70.40
44839;BME280;30576;42.098;24.876;2022-08-21T13:22:30;98892.94;;;25.80;70.04
44839;BME280;30576;42.098;24.876;2022-08-21T13:24:57;98873.69;;;25.44;70.42
44839;BME280;30576;42.098;24.876;2022-08-21T13:27:26;98892.78;;;25.91;68.83
44839;BME280;30576;42.098;24.876;2022-08-21T13:30:06;98896.69;;;25.99;69.14
44839;BME280;30576;42.098;24.876;2022-08-21T13:32:34;98873.75;;;25.73;70.47
44839;BME280;30576;42.098;24.876;2022-08-21T13:38:05;98862.44;;;26.09;69.22
44839;BME280;30576;42.098;24.876;2022-08-21T13:40:48;98857.50;;;25.64;70.01
44839;BME280;30576;42.098;24.876;2022-08-21T13:43:17;98857.59;;;26.03;69.50
44839;BME280;30576;42.098;24.876;2022-08-21T13:45:48;98858.25;;;25.76;71.62
44839;BME280;30576;42.098;24.876;2022-08-21T13:48:14;98876.88;;;25.88;70.66
44839;BME280;30576;42.098;24.876;2022-08-21T13:50:40;98853.25;;;25.71;69.35
44839;BME280;30576;42.098;24.876;2022-08-21T13:53:18;98869.75;;;25.58;70.74
44839;BME280;30576;42.098;24.876;2022-08-21T13:55:44;98878.16;;;25.94;69.91
44839;BME280;30576;42.098;24.876;2022-08-21T13:58:11;98878.31;;;25.92;71.65
44839;BME280;30576;42.098;24.876;2022-08-21T14:00:50;98876.91;;;26.37;69.50
44839;BME280;30576;42.098;24.876;2022-08-21T14:03:31;98859.81;;;25.78;68.94
44839;BME280;30576;42.098;24.876;2022-08-21T14:05:57;98885.56;;;26.41;68.33
44839;BME280;30576;42.098;24.876;2022-08-21T14:08:34;98863.38;;;26.47;67.72
44839;BME280;30576;42.098;24.876;2022-08-21T14:11:02;98868.91;;;26.45;66.26
44839;BME280;30576;42.098;24.876;2022-08-21T14:15:57;98874.63;;;26.33;66.51
44839;BME280;30576;42.098;24.876;2022-08-21T14:18:23;98860.13;;;26.24;66.88
44839;BME280;30576;42.098;24.876;2022-08-21T14:20:51;98817.50;;;25.98;66.44
44839;BME280;30576;42.098;24.876;2022-08-21T14:23:26;98840.81;;;26.09;66.94
44839;BME280;30576;42.098;24.876;2022-08-21T14:25:52;98845.34;;;26.18;66.80
44839;BME280;30576;42.098;24.876;2022-08-21T14:28:27;98846.31;;;26.37;66.43
44839;BME280;30576;42.098;24.876;2022-08-21T14:30:55;98841.03;;;26.45;65.32
44839;BME280;30576;42.098;24.876;2022-08-21T14:33:30;98833.75;;;26.65;64.50